Station Historical Data
Daily Summary for November 5, 2017 Units:  English    Metric   Both
« Previous Day
Next Day »
Daily Weekly Monthly Yearly Custom
  High: Low: Average:
Temperature: 71.9 °F 62.1 °F 65 °F
Dew Point: 64.7 °F 60.4 °F 62.2 °F
Humidity: 95% 75% 91%
Wind Speed: 2.0mph 0.0mph 0.2mph
Wind Gust: 2.0mph - -
Wind- - WNW
Pressure: 30.17 in 30.07 in -
Precipitation: 0.00 in    
Historical Graphs
 
 
Tabular Data for November 5, 2017
Time Temperature Dew Point Pressure Wind Wind Speed Wind Gust Humidity Rainfall Rate (Hourly) Conditions
00:04 63.7 °F 61.9 °F 30.12 in Calm     94% 0.00 in SCT
00:09 63.6 °F 61.8 °F 30.12 in Calm     94% 0.00 in SCT
00:14 63.5 °F 61.7 °F 30.12 in Calm     94% 0.00 in SCT
00:19 63.3 °F 61.5 °F 30.12 in Calm     94% 0.00 in SCT
00:24 63.2 °F 61.4 °F 30.12 in Calm     94% 0.00 in SCT
00:29 63.3 °F 61.5 °F 30.12 in Calm     94% 0.00 in SCT
00:34 63.2 °F 61.4 °F 30.12 in Calm     94% 0.00 in SCT
00:39 63.2 °F 61.4 °F 30.12 in Calm     94% 0.00 in SCT
00:44 63.1 °F 61.3 °F 30.12 in Calm     94% 0.00 in SCT
00:49 63.0 °F 61.2 °F 30.12 in Calm     94% 0.00 in SCT
00:54 63.2 °F 61.4 °F 30.12 in Calm     94% 0.00 in SCT
00:59 63.3 °F 61.5 °F 30.12 in Calm     94% 0.00 in SCT
01:04 63.3 °F 61.5 °F 30.12 in Calm     94% 0.00 in BKN
01:09 63.3 °F 61.5 °F 30.12 in Calm     94% 0.00 in BKN
01:14 63.3 °F 61.5 °F 30.12 in Calm     94% 0.00 in BKN
01:19 63.3 °F 61.5 °F 30.12 in Calm     94% 0.00 in BKN
01:24 63.3 °F 61.5 °F 30.12 in Calm     94% 0.00 in BKN
01:29 63.2 °F 61.4 °F 30.12 in Calm     94% 0.00 in BKN
01:35 63.2 °F 61.4 °F 30.12 in Calm     94% 0.00 in BKN
01:40 63.2 °F 61.4 °F 30.12 in Calm     94% 0.00 in BKN
01:45 63.2 °F 61.4 °F 30.12 in Calm     94% 0.00 in BKN
01:50 63.1 °F 61.4 °F 30.11 in Calm     94% 0.00 in BKN
01:55 63.0 °F 61.3 °F 30.11 in Calm     94% 0.00 in OVC
01:00 63.0 °F 61.2 °F 30.11 in Calm     94% 0.00 in OVC
01:05 63.0 °F 61.2 °F 30.11 in Calm     94% 0.00 in OVC
01:10 62.9 °F 61.1 °F 30.11 in Calm     94% 0.00 in OVC
01:15 62.8 °F 61.0 °F 30.11 in Calm     94% 0.00 in OVC
01:20 62.7 °F 60.9 °F 30.11 in Calm     94% 0.00 in OVC
01:25 62.7 °F 61.0 °F 30.11 in Calm     94% 0.00 in BKN
01:30 62.7 °F 60.9 °F 30.11 in Calm     94% 0.00 in BKN
01:35 62.6 °F 60.8 °F 30.11 in Calm     94% 0.00 in BKN
01:40 62.5 °F 60.7 °F 30.11 in Calm     94% 0.00 in BKN
01:45 62.5 °F 60.7 °F 30.11 in Calm     94% 0.00 in BKN
01:50 62.4 °F 60.7 °F 30.11 in Calm     94% 0.00 in BKN
01:55 62.4 °F 60.6 °F 30.11 in Calm     94% 0.00 in CLR
02:00 62.3 °F 60.6 °F 30.10 in Calm     94% 0.00 in CLR
02:05 62.3 °F 60.6 °F 30.11 in Calm     94% 0.00 in CLR
02:10 62.2 °F 60.5 °F 30.11 in Calm     94% 0.00 in CLR
02:15 62.1 °F 60.4 °F 30.11 in Calm     94% 0.00 in CLR
02:20 62.1 °F 60.4 °F 30.11 in Calm     94% 0.00 in CLR
02:25 62.1 °F 60.4 °F 30.11 in Calm     94% 0.00 in CLR
02:30 62.1 °F 60.4 °F 30.10 in Calm     94% 0.00 in CLR
02:35 62.5 °F 60.8 °F 30.10 in Calm     94% 0.00 in CLR
02:40 62.7 °F 60.9 °F 30.10 in Calm     94% 0.00 in CLR
02:45 62.6 °F 60.8 °F 30.10 in Calm     94% 0.00 in CLR
02:50 62.6 °F 60.8 °F 30.10 in Calm     94% 0.00 in CLR
02:55 62.5 °F 60.8 °F 30.10 in Calm     94% 0.00 in FEW
03:00 62.4 °F 60.7 °F 30.10 in Calm     94% 0.00 in FEW
03:05 62.4 °F 60.7 °F 30.10 in Calm     94% 0.00 in CLR
03:10 62.4 °F 60.7 °F 30.10 in Calm     94% 0.00 in CLR
03:15 62.4 °F 60.7 °F 30.10 in Calm     94% 0.00 in CLR
03:20 62.3 °F 60.6 °F 30.10 in Calm     94% 0.00 in CLR
03:25 62.2 °F 60.5 °F 30.10 in Calm     94% 0.00 in CLR
03:30 62.1 °F 60.4 °F 30.10 in Calm     94% 0.00 in CLR
03:35 62.2 °F 60.5 °F 30.10 in Calm     94% 0.00 in CLR
03:40 62.2 °F 60.5 °F 30.11 in Calm     94% 0.00 in CLR
03:45 62.4 °F 60.7 °F 30.11 in Calm     94% 0.00 in CLR
03:50 62.5 °F 60.7 °F 30.11 in Calm     94% 0.00 in CLR
03:55 62.7 °F 60.9 °F 30.11 in WNW 1.2 mph   94% 0.00 in FEW
04:00 63.0 °F 61.2 °F 30.11 in Calm     94% 0.00 in FEW
04:05 63.1 °F 61.3 °F 30.11 in Calm     94% 0.00 in FEW
04:10 63.2 °F 61.4 °F 30.12 in Calm     94% 0.00 in FEW
04:15 63.2 °F 61.4 °F 30.12 in Calm     94% 0.00 in FEW
04:20 63.2 °F 61.4 °F 30.12 in Calm     94% 0.00 in FEW
04:25 63.2 °F 61.4 °F 30.12 in Calm     94% 0.00 in FEW
04:30 63.3 °F 61.5 °F 30.12 in Calm     94% 0.00 in FEW
04:35 63.2 °F 61.4 °F 30.12 in Calm     94% 0.00 in FEW
04:41 63.3 °F 61.5 °F 30.12 in Calm     94% 0.00 in FEW
04:46 63.3 °F 61.5 °F 30.12 in Calm     94% 0.00 in BKN
04:51 63.3 °F 61.5 °F 30.12 in Calm     94% 0.00 in CLR
04:56 63.2 °F 61.4 °F 30.12 in Calm     94% 0.00 in CLR
05:01 63.2 °F 61.4 °F 30.12 in Calm     94% 0.00 in OVC
05:06 63.2 °F 61.4 °F 30.13 in West 1.2 mph   94% 0.00 in OVC
05:16 63.2 °F 61.4 °F 30.13 in Calm     94% 0.00 in OVC
05:21 63.2 °F 61.4 °F 30.13 in Calm     94% 0.00 in OVC
05:27 63.2 °F 61.4 °F 30.13 in Calm     94% 0.00 in OVC
05:32 63.2 °F 61.4 °F 30.13 in Calm     94% 0.00 in OVC
05:37 63.2 °F 61.4 °F 30.13 in West 1.2 mph 1.2 mph 94% 0.00 in OVC
05:42 63.2 °F 61.4 °F 30.13 in Calm     94% 0.00 in OVC
05:47 63.2 °F 61.4 °F 30.13 in Calm     94% 0.00 in OVC
05:52 63.2 °F 61.4 °F 30.13 in West 1.2 mph   94% 0.00 in OVC
05:57 63.2 °F 61.4 °F 30.13 in Calm     94% 0.00 in OVC
06:02 63.2 °F 61.4 °F 30.13 in West 1.2 mph   94% 0.00 in OVC
06:07 63.2 °F 61.4 °F 30.13 in Calm     94% 0.00 in OVC
06:12 63.2 °F 61.4 °F 30.13 in West 1.0 mph   94% 0.00 in OVC
06:17 63.2 °F 61.4 °F 30.13 in Calm     94% 0.00 in OVC
06:22 63.2 °F 61.4 °F 30.14 in West 1.2 mph 1.2 mph 94% 0.00 in OVC
06:27 63.2 °F 61.4 °F 30.14 in Calm     94% 0.00 in OVC
06:32 63.2 °F 61.4 °F 30.14 in West 1.0 mph 1.0 mph 94% 0.00 in OVC
06:37 63.3 °F 61.5 °F 30.13 in West 1.2 mph 1.2 mph 94% 0.00 in OVC
06:42 63.3 °F 61.5 °F 30.13 in Calm     94% 0.00 in OVC
06:47 63.3 °F 61.5 °F 30.13 in Calm     94% 0.00 in OVC
06:52 63.3 °F 61.5 °F 30.14 in West 1.2 mph   94% 0.00 in OVC
06:58 63.3 °F 61.5 °F 30.14 in Calm     94% 0.00 in OVC
07:03 63.4 °F 61.6 °F 30.14 in Calm     94% 0.00 in OVC
07:08 63.4 °F 61.6 °F 30.14 in Calm     94% 0.00 in OVC
07:13 63.4 °F 61.6 °F 30.15 in Calm   0.1 mph 94% 0.00 in OVC
07:18 63.4 °F 61.6 °F 30.15 in Calm     94% 0.00 in OVC
07:23 63.5 °F 61.7 °F 30.15 in Calm     94% 0.00 in OVC
07:28 63.5 °F 61.7 °F 30.15 in Calm     94% 0.00 in OVC
07:33 63.5 °F 61.7 °F 30.15 in Calm     94% 0.00 in OVC
07:38 63.6 °F 61.8 °F 30.16 in Calm     94% 0.00 in OVC
07:43 63.6 °F 61.8 °F 30.16 in West 1.2 mph   94% 0.00 in OVC
07:48 63.6 °F 61.8 °F 30.16 in Calm     94% 0.00 in OVC
07:53 63.6 °F 61.8 °F 30.16 in Calm     94% 0.00 in OVC
07:58 63.7 °F 61.9 °F 30.16 in Calm     94% 0.00 in OVC
08:03 63.7 °F 61.9 °F 30.16 in Calm     94% 0.00 in OVC
08:08 63.7 °F 61.9 °F 30.16 in Calm     94% 0.00 in OVC
08:13 63.7 °F 61.9 °F 30.16 in Calm     94% 0.00 in OVC
08:18 63.8 °F 62.0 °F 30.16 in Calm     94% 0.00 in OVC
08:23 63.8 °F 62.0 °F 30.16 in Calm     94% 0.00 in OVC
08:28 63.8 °F 62.0 °F 30.17 in Calm     94% 0.00 in OVC
08:33 63.8 °F 62.0 °F 30.17 in Calm     94% 0.00 in OVC
08:38 63.9 °F 62.1 °F 30.16 in Calm     94% 0.00 in OVC
08:43 64.0 °F 62.2 °F 30.16 in Calm     94% 0.00 in OVC
08:48 64.0 °F 62.2 °F 30.17 in Calm     94% 0.00 in OVC
08:53 64.1 °F 62.3 °F 30.17 in Calm     94% 0.00 in OVC
08:58 64.2 °F 62.7 °F 30.17 in Calm     95% 0.00 in OVC
09:03 64.2 °F 62.4 °F 30.17 in Calm     94% 0.00 in OVC
09:09 64.3 °F 62.5 °F 30.17 in Calm     94% 0.00 in OVC
09:14 64.4 °F 62.9 °F 30.17 in WNW 1.2 mph 1.2 mph 95% 0.00 in OVC
09:19 64.3 °F 62.5 °F 30.17 in WNW 1.2 mph 1.2 mph 94% 0.00 in OVC
09:24 64.3 °F 62.5 °F 30.17 in Calm     94% 0.00 in OVC
09:29 64.4 °F 62.6 °F 30.17 in WNW 1.2 mph   94% 0.00 in OVC
09:34 64.5 °F 62.7 °F 30.16 in West 1.2 mph 1.2 mph 94% 0.00 in OVC
09:39 64.5 °F 62.7 °F 30.17 in Calm     94% 0.00 in OVC
09:49 64.5 °F 62.7 °F 30.17 in Calm     94% 0.00 in OVC
09:54 64.5 °F 62.7 °F 30.17 in NW 1.2 mph 1.2 mph 94% 0.00 in OVC
09:59 64.5 °F 62.7 °F 30.17 in Calm     94% 0.00 in OVC
10:04 64.7 °F 62.9 °F 30.17 in Calm     94% 0.00 in OVC
10:09 64.7 °F 62.9 °F 30.17 in Calm     94% 0.00 in OVC
10:14 64.7 °F 62.9 °F 30.17 in West 1.2 mph 1.2 mph 94% 0.00 in OVC
10:19 64.7 °F 62.9 °F 30.17 in Calm     94% 0.00 in OVC
10:24 64.8 °F 63.0 °F 30.17 in Calm   0.1 mph 94% 0.00 in OVC
10:29 64.8 °F 63.0 °F 30.17 in Calm     94% 0.00 in OVC
10:34 64.8 °F 63.0 °F 30.17 in Calm     94% 0.00 in OVC
10:39 64.9 °F 63.1 °F 30.17 in Calm     94% 0.00 in OVC
10:44 64.9 °F 63.1 °F 30.17 in Calm     94% 0.00 in OVC
10:50 65.0 °F 63.2 °F 30.17 in Calm     94% 0.00 in OVC
10:55 65.0 °F 63.2 °F 30.17 in Calm     94% 0.00 in OVC
11:00 65.0 °F 63.2 °F 30.17 in Calm     94% 0.00 in OVC
11:05 64.9 °F 63.1 °F 30.16 in Calm     94% 0.00 in OVC
11:10 65.0 °F 62.9 °F 30.16 in Calm     93% 0.00 in OVC
11:15 65.1 °F 63.0 °F 30.16 in Calm   1.0 mph 93% 0.00 in OVC
11:20 65.2 °F 63.1 °F 30.16 in Calm   1.0 mph 93% 0.00 in OVC
11:25 65.2 °F 63.1 °F 30.16 in Calm     93% 0.00 in OVC
11:30 65.4 °F 63.3 °F 30.16 in Calm     93% 0.00 in OVC
11:35 65.6 °F 63.6 °F 30.16 in Calm   1.0 mph 93% 0.00 in OVC
11:40 65.9 °F 63.5 °F 30.16 in Calm   1.0 mph 92% 0.00 in OVC
11:45 66.4 °F 64.0 °F 30.16 in West 1.2 mph   92% 0.00 in OVC
11:50 66.7 °F 63.7 °F 30.15 in West 1.2 mph 1.2 mph 90% 0.00 in OVC
11:55 67.2 °F 64.2 °F 30.15 in West 1.2 mph   90% 0.00 in OVC
12:00 67.6 °F 64.2 °F 30.15 in Calm     89% 0.00 in OVC
12:06 67.7 °F 64.0 °F 30.15 in Calm     88% 0.00 in OVC
12:11 67.8 °F 63.5 °F 30.14 in Calm     86% 0.00 in OVC
12:16 67.9 °F 63.6 °F 30.14 in WNW 1.2 mph   86% 0.00 in OVC
12:21 67.8 °F 63.8 °F 30.14 in Calm     87% 0.00 in OVC
12:26 67.9 °F 63.9 °F 30.14 in WNW 1.2 mph   87% 0.00 in OVC
12:31 67.8 °F 63.5 °F 30.14 in West 1.2 mph   86% 0.00 in OVC
12:36 67.8 °F 63.8 °F 30.14 in Calm     87% 0.00 in OVC
12:41 67.9 °F 63.9 °F 30.13 in Calm     87% 0.00 in OVC
12:46 68.1 °F 64.1 °F 30.13 in Calm     87% 0.00 in OVC
12:51 68.2 °F 63.9 °F 30.13 in West 1.2 mph 1.2 mph 86% 0.00 in OVC
12:56 68.4 °F 63.7 °F 30.13 in West 1.2 mph 1.2 mph 85% 0.00 in OVC
13:01 68.6 °F 63.6 °F 30.13 in NW 1.2 mph   84% 0.00 in OVC
13:06 68.8 °F 64.1 °F 30.12 in Calm     85% 0.00 in OVC
13:11 69.0 °F 64.6 °F 30.12 in Calm     86% 0.00 in OVC
13:16 69.2 °F 64.2 °F 30.12 in WNW 1.2 mph 1.2 mph 84% 0.00 in OVC
13:17 69.3 °F 64.3 °F 30.12 in WNW 1.0 mph   84% 0.00 in OVC
13:22 69.6 °F 64.5 °F 30.12 in Calm     84% 0.00 in OVC
13:27 69.7 °F 64.0 °F 30.11 in WNW 1.2 mph 1.2 mph 82% 0.00 in OVC
13:37 69.8 °F 64.4 °F 30.11 in West 1.2 mph 1.2 mph 83% 0.00 in OVC
13:43 69.6 °F 64.2 °F 30.11 in Calm     83% 0.00 in OVC
13:48 69.5 °F 64.1 °F 30.10 in Calm     83% 0.00 in OVC
13:53 69.5 °F 64.1 °F 30.10 in Calm     83% 0.00 in OVC
13:58 69.7 °F 64.3 °F 30.11 in WNW 1.2 mph   83% 0.00 in OVC
14:03 69.7 °F 64.0 °F 30.11 in WNW 1.2 mph   82% 0.00 in BKN
14:08 69.6 °F 63.9 °F 30.10 in Calm     82% 0.00 in BKN
14:13 69.9 °F 64.2 °F 30.10 in Calm     82% 0.00 in BKN
14:18 70.1 °F 64.3 °F 30.10 in NNW 1.2 mph 1.2 mph 82% 0.00 in BKN
14:23 70.1 °F 64.3 °F 30.10 in Calm     82% 0.00 in BKN
14:28 70.3 °F 64.2 °F 30.09 in NNW 1.2 mph   81% 0.00 in BKN
14:33 70.8 °F 64.7 °F 30.09 in Calm     81% 0.00 in BKN
14:38 70.9 °F 63.7 °F 30.09 in West 2.0 mph 2.0 mph 78% 0.00 in BKN
14:43 71.0 °F 63.8 °F 30.09 in West 1.2 mph 1.2 mph 78% 0.00 in SCT
14:48 71.0 °F 64.2 °F 30.09 in Calm     79% 0.00 in SCT
14:53 71.1 °F 63.9 °F 30.09 in West 1.2 mph 1.2 mph 78% 0.00 in SCT
14:58 71.2 °F 64.0 °F 30.09 in Calm     78% 0.00 in SCT
15:03 71.2 °F 64.4 °F 30.09 in Calm     79% 0.00 in SCT
15:08 71.1 °F 63.9 °F 30.09 in Calm     78% 0.00 in SCT
15:13 71.2 °F 64.4 °F 30.08 in Calm     79% 0.00 in SCT
15:18 71.4 °F 63.8 °F 30.08 in Calm     77% 0.00 in SCT
15:24 71.5 °F 63.2 °F 30.08 in West 1.2 mph   75% 0.00 in SCT
15:29 71.7 °F 64.5 °F 30.08 in West 1.2 mph   78% 0.00 in SCT
15:34 71.7 °F 64.1 °F 30.08 in Calm     77% 0.00 in SCT
15:39 71.7 °F 64.5 °F 30.08 in Calm     78% 0.00 in SCT
15:44 71.8 °F 64.6 °F 30.08 in Calm     78% 0.00 in SCT
15:49 71.9 °F 64.3 °F 30.08 in Calm     77% 0.00 in SCT
15:54 71.9 °F 64.7 °F 30.07 in Calm     78% 0.00 in SCT
15:59 71.7 °F 64.1 °F 30.08 in Calm     77% 0.00 in SCT
16:04 71.7 °F 64.5 °F 30.08 in Calm     78% 0.00 in SCT
16:09 71.5 °F 63.9 °F 30.07 in Calm     77% 0.00 in SCT
16:14 71.4 °F 63.8 °F 30.07 in Calm     77% 0.00 in SCT
16:19 71.2 °F 64.0 °F 30.07 in Calm     78% 0.00 in SCT
16:24 70.9 °F 64.1 °F 30.07 in Calm     79% 0.00 in SCT
16:29 70.6 °F 63.8 °F 30.07 in Calm     79% 0.00 in SCT
16:34 70.3 °F 63.8 °F 30.07 in Calm     80% 0.00 in SCT
16:40 70.1 °F 64.0 °F 30.07 in Calm     81% 0.00 in SCT
16:45 69.6 °F 63.9 °F 30.08 in Calm     82% 0.00 in SCT
16:50 69.2 °F 63.8 °F 30.07 in Calm     83% 0.00 in SCT
16:55 68.9 °F 63.8 °F 30.08 in Calm     84% 0.00 in SCT
17:00 68.6 °F 63.6 °F 30.07 in Calm     84% 0.00 in SCT
17:05 68.5 °F 63.8 °F 30.08 in Calm     85% 0.00 in SCT
17:10 68.3 °F 63.6 °F 30.08 in Calm     85% 0.00 in SCT
17:15 68.2 °F 63.9 °F 30.08 in Calm     86% 0.00 in BKN
17:20 68.1 °F 63.8 °F 30.07 in Calm     86% 0.00 in BKN
17:25 67.9 °F 63.6 °F 30.07 in Calm     86% 0.00 in BKN
17:30 67.8 °F 63.5 °F 30.07 in Calm     86% 0.00 in BKN
17:35 67.7 °F 63.4 °F 30.07 in Calm     86% 0.00 in BKN
17:40 67.5 °F 63.5 °F 30.07 in Calm     87% 0.00 in BKN
17:45 67.3 °F 63.3 °F 30.07 in Calm     87% 0.00 in BKN
17:50 67.2 °F 63.2 °F 30.07 in Calm     87% 0.00 in BKN
17:55 67.0 °F 63.0 °F 30.07 in Calm     87% 0.00 in BKN
18:00 66.8 °F 63.1 °F 30.07 in Calm     88% 0.00 in BKN
18:05 66.6 °F 62.9 °F 30.08 in Calm     88% 0.00 in BKN
18:10 66.4 °F 62.7 °F 30.07 in Calm     88% 0.00 in BKN
18:15 66.2 °F 62.5 °F 30.08 in Calm     88% 0.00 in BKN
18:20 65.9 °F 62.2 °F 30.08 in Calm     88% 0.00 in BKN
18:25 65.6 °F 62.3 °F 30.08 in Calm     89% 0.00 in BKN
18:30 65.4 °F 62.1 °F 30.08 in Calm     89% 0.00 in BKN
18:35 65.2 °F 62.2 °F 30.08 in Calm     90% 0.00 in BKN
18:40 65.2 °F 62.2 °F 30.08 in Calm     90% 0.00 in BKN
18:45 65.0 °F 62.0 °F 30.08 in Calm     90% 0.00 in BKN
18:50 64.8 °F 61.8 °F 30.08 in Calm     90% 0.00 in BKN
18:55 64.6 °F 61.6 °F 30.08 in Calm     90% 0.00 in BKN
19:00 64.4 °F 61.7 °F 30.08 in Calm     91% 0.00 in BKN
19:05 64.3 °F 61.6 °F 30.08 in Calm     91% 0.00 in SCT
19:10 64.3 °F 61.6 °F 30.08 in Calm     91% 0.00 in SCT
19:15 64.3 °F 61.9 °F 30.08 in Calm     92% 0.00 in SCT
19:20 64.2 °F 61.8 °F 30.08 in Calm     92% 0.00 in SCT
19:25 64.1 °F 61.7 °F 30.08 in Calm     92% 0.00 in SCT
19:30 64.1 °F 61.7 °F 30.08 in Calm     92% 0.00 in SCT
19:36 63.9 °F 61.5 °F 30.08 in Calm     92% 0.00 in SCT
19:41 63.8 °F 61.4 °F 30.09 in Calm     92% 0.00 in SCT
19:46 63.8 °F 61.4 °F 30.09 in Calm     92% 0.00 in SCT
19:51 63.7 °F 61.3 °F 30.09 in Calm     92% 0.00 in SCT
19:56 63.5 °F 61.1 °F 30.09 in Calm     92% 0.00 in SCT
20:01 63.3 °F 60.9 °F 30.09 in Calm     92% 0.00 in BKN
20:06 63.2 °F 60.8 °F 30.09 in Calm     92% 0.00 in BKN
20:11 63.1 °F 60.7 °F 30.09 in Calm     92% 0.00 in BKN
20:16 63.0 °F 60.6 °F 30.10 in Calm     92% 0.00 in BKN
20:26 63.0 °F 60.9 °F 30.10 in Calm     93% 0.00 in BKN
20:31 63.1 °F 61.0 °F 30.11 in Calm     93% 0.00 in BKN
20:36 63.1 °F 61.0 °F 30.11 in Calm     93% 0.00 in BKN
20:41 63.3 °F 61.2 °F 30.11 in Calm     93% 0.00 in BKN
20:46 63.4 °F 61.3 °F 30.11 in Calm     93% 0.00 in BKN
20:52 63.4 °F 61.3 °F 30.11 in Calm     93% 0.00 in BKN
20:57 63.4 °F 61.3 °F 30.11 in Calm     93% 0.00 in BKN
21:02 63.4 °F 61.3 °F 30.11 in Calm     93% 0.00 in BKN
21:07 63.5 °F 61.4 °F 30.11 in Calm     93% 0.00 in BKN
21:12 63.6 °F 61.5 °F 30.11 in Calm     93% 0.00 in BKN
21:17 63.6 °F 61.5 °F 30.11 in Calm     93% 0.00 in BKN
21:22 63.5 °F 61.4 °F 30.11 in Calm     93% 0.00 in BKN
21:27 63.4 °F 61.3 °F 30.11 in Calm     93% 0.00 in BKN
21:32 63.4 °F 61.3 °F 30.11 in Calm     93% 0.00 in BKN
21:33 63.3 °F 61.2 °F 30.11 in Calm     93% 0.00 in BKN
21:38 63.3 °F 61.2 °F 30.11 in Calm     93% 0.00 in BKN
21:43 63.2 °F 61.1 °F 30.11 in Calm     93% 0.00 in BKN
21:49 63.2 °F 61.1 °F 30.11 in Calm     93% 0.00 in BKN
21:54 63.1 °F 61.0 °F 30.11 in Calm     93% 0.00 in BKN
21:59 63.0 °F 60.9 °F 30.11 in Calm     93% 0.00 in BKN
22:04 63.0 °F 60.9 °F 30.11 in Calm     93% 0.00 in BKN
22:09 63.1 °F 61.0 °F 30.11 in Calm     93% 0.00 in BKN
22:17 63.1 °F 61.0 °F 30.11 in Calm     93% 0.00 in BKN
22:21 63.1 °F 61.0 °F 30.10 in Calm     93% 0.00 in BKN
22:24 63.1 °F 61.3 °F 30.11 in Calm     94% 0.00 in BKN
22:25 63.2 °F 61.4 °F 30.10 in Calm     94% 0.00 in BKN
22:26 63.1 °F 61.3 °F 30.11 in Calm     94% 0.00 in BKN
22:29 63.1 °F 61.3 °F 30.10 in Calm     94% 0.00 in BKN
22:31 63.1 °F 61.3 °F 30.10 in Calm     94% 0.00 in BKN
22:36 63.0 °F 61.2 °F 30.10 in Calm     94% 0.00 in BKN
22:41 63.0 °F 61.2 °F 30.10 in Calm     94% 0.00 in BKN
22:46 63.0 °F 61.2 °F 30.10 in Calm     94% 0.00 in BKN
22:51 63.0 °F 61.2 °F 30.10 in Calm     94% 0.00 in BKN
22:56 63.0 °F 61.2 °F 30.10 in Calm     94% 0.00 in BKN
23:01 62.9 °F 61.1 °F 30.10 in Calm     94% 0.00 in BKN
23:06 62.8 °F 61.0 °F 30.10 in Calm     94% 0.00 in BKN
23:07 62.8 °F 61.0 °F 30.10 in Calm     94% 0.00 in BKN
23:12 62.6 °F 60.5 °F 30.09 in Calm     93% 0.00 in BKN
23:17 62.7 °F 60.9 °F 30.09 in Calm     94% 0.00 in BKN
23:22 62.8 °F 61.0 °F 30.09 in Calm     94% 0.00 in BKN
23:27 62.8 °F 61.0 °F 30.09 in Calm     94% 0.00 in BKN
23:32 62.7 °F 60.9 °F 30.09 in Calm     94% 0.00 in BKN
23:37 62.6 °F 60.8 °F 30.09 in Calm     94% 0.00 in BKN
23:42 62.7 °F 60.9 °F 30.09 in Calm     94% 0.00 in BKN
23:47 62.7 °F 60.9 °F 30.09 in Calm     94% 0.00 in BKN
23:52 62.6 °F 60.8 °F 30.09 in Calm     94% 0.00 in BKN
23:57 62.6 °F 60.8 °F 30.09 in Calm     94% 0.00 in BKN
Piedmont Bend
Compliments of Weather Underground - 2 mb